Terminal Aerodrome Forecast
Issued by NWS Duluth, MN

Home | Current Version | Previous Version | Text Only | Print | Product List | Glossary On
Versions: 1 2 3 4 5 6 7 8 9 10 11 12 13 14 15 16 17 18 19 20 21 22 23 24 25 26
023
FTUS43 KDLH 191732
TAFINL
TAF
KINL 191732Z 1918/2018 26008KT P6SM VCSH SCT040 BKN080
     FM192300 26007KT P6SM BKN150
     FM200300 25006KT P6SM BKN015
     FM200500 27005KT 5SM BR BKN008
     FM201400 VRB03KT P6SM BKN010
     FM201600 VRB03KT P6SM BKN020=

USA.gov is the U.S. government's official web portal to all federal, state and local government web resources and services.